Latest Coastal Weather Observations for Onslow Airport

IDW60701

Issued at 4:23 pm WST Saturday 21 January 2017 (issued every 10 minutes, with the page automatically refreshed every 10 minutes)

About coastal observations | Map of coastal stations | Coastal observations for WA | Marine services | Other Formats
Station Details ID: 005017 Name: ONSLOW AIRPORT Lat: -21.67 Lon: 115.11 Height: 10.5 m
Data from the previous 72 hours. | See also: Recent months at Onslow Airport
Date/Time
WST
Temp
°C
Wind Pressure Rain since
9am
mm
Weather Cloud Vis
km
Sea
Height
m
Swell
Dir  Spd
kts
Gust
kts
hPa Trend Height
m
Period
s
Dir
21/04:00pm 27.6 W 24 30 1005.0 - 0.0 - - - - - - -
21/03:30pm 29.0 W 24 30 1005.1 - 0.0 - - - - - - -
21/03:00pm 28.8 WNW 24 31 1005.3 - 0.0 - - - - - - -
21/02:30pm 29.1 WNW 23 28 1005.4 - 0.0 - - - - - - -
21/02:00pm 29.2 WNW 22 26 1005.5 - 0.0 - - - - - - -
21/01:30pm 29.4 WNW 21 26 1005.6 - 0.0 - - - - - - -
21/01:00pm 29.6 WNW 21 27 1005.7 - 0.0 - - - - - - -
21/12:30pm 30.8 WNW 22 27 1005.9 - 0.0 - - - - - - -
21/12:00pm 29.9 WNW 21 26 1006.0 - 0.0 - - - - - - -
21/11:30am 30.1 WNW 20 26 1006.2 - 0.0 - - - - - - -
21/11:00am 29.1 WNW 19 24 1006.5 - 0.0 - - - - - - -
21/10:30am 28.7 W 16 21 1006.8 - 0.0 - - - - - - -
21/10:00am 28.6 WSW 13 19 1007.2 - 0.0 - - - - - - -
21/09:30am 28.2 WSW 13 18 1007.3 - 0.0 - - - - - - -
21/09:00am 27.8 WSW 13 19 1007.4 - 0.0 - - - - - - -
21/08:30am 27.2 WSW 14 18 1007.3 - 0.0 - - - - - - -
21/08:00am 25.6 WSW 14 17 1007.1 - 0.0 - - - - - - -
21/07:30am 25.1 WSW 13 17 1007.0 - 0.0 - - - - - - -
21/07:00am 24.6 WSW 12 18 1006.8 - 0.0 - - - - - - -
21/06:30am 23.9 WSW 11 14 1006.6 - 0.0 - - - - - - -
21/06:00am 23.5 WSW 10 14 1006.3 - 0.0 - - - - - - -
21/05:30am 23.4 WSW 11 14 1005.9 - 0.0 - - - - - - -
21/05:00am 23.5 WSW 11 15 1005.5 - 0.0 - - - - - - -
21/04:30am 23.5 WSW 13 17 1005.2 - 0.0 - - - - - - -
21/04:00am 23.6 WSW 13 18 1005.1 - 0.0 - - - - - - -
21/03:30am 23.8 WSW 14 19 1005.0 - 0.0 - - - - - - -
21/03:00am 24.0 WSW 14 18 1005.1 - 0.0 - - - - - - -
21/02:30am 24.2 WSW 13 18 1005.2 - 0.0 - - - - - - -
21/02:00am 24.4 WSW 14 19 1005.4 - 0.0 - - - - - - -
21/01:30am 24.5 WSW 12 15 1005.4 - 0.0 - - - - - - -
21/01:00am 24.7 WSW 13 16 1005.5 - 0.0 - - - - - - -
21/12:30am 24.8 WSW 12 16 1005.8 - 0.0 - - - - - - -
21/12:00am 25.1 WSW 13 18 1006.0 - 0.0 - - - - - - -
 
Date/Time
WST
Temp
°C
Wind Pressure Rain since
9am
mm
Weather Cloud Vis
km
Sea
Height
m
Swell
Dir  Spd
kts
Gust
kts
hPa Trend Height
m
Period
s
Dir
20/11:30pm 25.1 WSW 14 18 1006.2 - 0.0 - - - - - - -
20/11:00pm 25.3 WSW 14 19 1006.2 - 0.0 - - - - - - -
20/10:30pm 25.4 WSW 14 19 1005.9 - 0.0 - - - - - - -
20/10:00pm 25.8 WSW 17 23 1005.7 - 0.0 - - - - - - -
20/09:30pm 26.4 WSW 14 18 1005.4 - 0.0 - - - - - - -
20/09:00pm 26.6 W 14 18 1005.1 - 0.0 - - - - - - -
20/08:30pm 26.8 W 14 19 1004.7 - 0.0 - - - - - - -
20/08:00pm 26.8 W 17 21 1004.1 - 0.0 - - - - - - -
20/07:30pm 26.9 W 15 20 1003.8 - 0.0 - - - - - - -
20/07:00pm 27.0 W 18 23 1003.5 - 0.0 - - - - - - -
20/06:30pm 27.5 W 19 24 1002.9 - 0.0 - - - - - - -
20/06:00pm 27.9 W 20 27 1002.7 - 0.0 - - - - - - -
20/05:30pm 28.4 W 19 25 1002.2 - 0.0 - - - - - - -
20/05:00pm 27.9 W 21 27 1002.0 - 0.0 - - - - - - -
20/04:30pm 29.3 WNW 22 29 1001.8 - 0.0 - - - - - - -
20/04:00pm 29.7 WNW 21 26 1001.9 - 0.0 - - - - - - -
20/03:30pm 29.9 WNW 21 28 1002.2 - 0.0 - - - - - - -
20/03:00pm 30.6 WNW 21 27 1002.4 - 0.0 - - - - - - -
20/02:30pm 30.2 WNW 22 27 1002.7 - 0.0 - - - - - - -
20/02:00pm 31.0 WNW 21 26 1003.1 - 0.0 - - - - - - -
20/01:30pm 30.7 WNW 20 27 1003.4 - 0.0 - - - - - - -
20/01:00pm 30.1 WNW 22 26 1003.8 - 0.0 - - - - - - -
20/12:30pm 29.7 WNW 21 25 1004.0 - 0.0 - - - - - - -
20/12:00pm 29.6 WNW 21 25 1004.3 - 0.0 - - - - - - -
20/11:30am 29.7 WNW 19 22 1004.6 - 0.0 - - - - - - -
20/11:00am 30.8 W 14 19 1005.1 - 0.0 - - - - - - -
20/10:30am 30.9 SW 10 14 1005.6 - 0.0 - - - - - - -
20/10:00am 29.2 WSW 10 16 1005.9 - 0.0 - - - - - - -
20/09:30am 27.7 SW 12 15 1006.0 - 0.0 - - - - - - -
20/09:00am 26.0 SW 13 17 1006.2 - 0.0 - - - - - - -
20/08:30am 25.2 SW 14 19 1006.3 - 0.0 - - - - - - -
20/08:00am 24.6 SW 16 22 1006.4 - 0.0 - - - - - - -
20/07:30am 23.5 SW 16 20 1006.4 - 0.0 - - - - - - -
20/07:00am 22.7 SW 18 21 1006.1 - 0.0 - - - - - - -
20/06:30am 22.3 SW 14 19 1006.0 - 0.0 - - - - - - -
20/06:00am 21.9 SW 14 19 1005.7 - 0.0 - - - - - - -
20/05:30am 22.0 SW 15 21 1005.3 - 0.0 - - - - - - -
20/05:00am 22.2 SW 17 21 1005.0 - 0.0 - - - - - - -
20/04:30am 22.3 SW 17 23 1004.9 - 0.0 - - - - - - -
20/04:00am 22.5 SW 16 20 1004.9 - 0.0 - - - - - - -
20/03:30am 22.7 SW 17 22 1004.9 - 0.0 - - - - - - -
20/03:00am 22.8 SW 18 22 1005.0 - 0.0 - - - - - - -
20/02:30am 23.0 SW 17 24 1005.0 - 0.0 - - - - - - -
20/02:00am 23.1 SW 17 23 1005.0 - 0.0 - - - - - - -
20/01:30am 23.3 SW 19 23 1005.2 - 0.0 - - - - - - -
20/01:00am 23.3 SW 16 21 1005.3 - 0.0 - - - - - - -
20/12:30am 23.4 SW 18 23 1005.5 - 0.0 - - - - - - -
20/12:00am 23.6 SW 17 25 1005.9 - 0.0 - - - - - - -
 
Date/Time
WST
Temp
°C
Wind Pressure Rain since
9am
mm
Weather Cloud Vis
km
Sea
Height
m
Swell
Dir  Spd
kts
Gust
kts
hPa Trend Height
m
Period
s
Dir
19/11:30pm 23.7 SW 17 22 1006.2 - 0.0 - - - - - - -
19/11:00pm 23.8 WSW 17 22 1006.4 - 0.0 - - - - - - -
19/10:30pm 24.0 WSW 19 26 1006.2 - 0.0 - - - - - - -
19/10:00pm 24.3 WSW 17 24 1006.2 - 0.0 - - - - - - -
19/09:39pm 24.5 WSW 19 29 1005.9 - 0.0 - - - - - - -
19/09:30pm 24.7 WSW 21 29 1005.7 - 0.0 - - - - - - -
19/09:00pm 25.2 WSW 20 28 1005.6 - 0.0 - - - - - - -
19/08:37pm 25.8 WSW 19 31 1005.3 - 0.0 - - - - - - -
19/08:30pm 25.9 WSW 19 27 1005.3 - 0.0 - - - - - - -
19/08:00pm 26.4 WSW 18 26 1005.2 - 0.0 - - - - - - -
19/07:30pm 26.8 WSW 19 26 1004.8 - 0.0 - - - - - - -
19/07:00pm 27.7 WSW 19 27 1004.4 - 0.0 - - - - - - -
19/06:49pm 28.0 WSW 19 29 1004.2 - 0.0 - - - - - - -
19/06:30pm 28.8 WSW 19 25 1004.0 - 0.0 - - - - - - -
19/06:00pm 29.7 WSW 20 26 1003.6 - 0.0 - - - - - - -
19/05:30pm 30.1 WSW 20 26 1003.4 - 0.0 - - - - - - -
19/05:00pm 29.2 W 19 24 1003.5 - 0.0 - - - - - - -
19/04:30pm 29.2 W 21 27 1003.7 - 0.0 - - - - - - -
19/04:00pm 30.1 W 23 29 1003.6 - 0.0 - - - - - - -
19/03:30pm 29.9 W 23 29 1004.1 - 0.0 - - - - - - -
19/03:00pm 30.7 W 23 29 1004.4 - 0.0 - - - - - - -
19/02:30pm 30.5 WNW 22 31 1004.8 - 0.0 - - - - - - -
19/02:00pm 32.1 W 23 32 1005.2 - 0.0 - - - - - - -
19/01:30pm 31.8 W 23 28 1005.6 - 0.0 - - - - - - -
19/01:16pm 31.0 W 21 31 1005.6 - 0.0 - - - - - - -
19/01:00pm 30.4 WNW 23 29 1006.0 - 0.0 - - - - - - -
19/12:30pm 31.1 W 18 27 1006.4 - 0.0 - - - - - - -
19/12:29pm 31.5 W 17 27 1006.4 - 0.0 - - - - - - -
19/12:00pm 32.0 SW 12 21 1007.1 - 0.0 - - - - - - -
19/11:30am 32.3 SW 11 15 1007.6 - 0.0 - - - - - - -
19/11:00am 30.4 SW 12 17 1007.9 - 0.0 - - - - - - -
19/10:30am 29.8 SSW 11 19 1008.3 - 0.0 - - - - - - -
19/10:00am 28.2 SW 13 16 1008.7 - 0.0 - - - - - - -
19/09:30am 27.9 SSW 13 18 1009.0 - 0.0 - - - - - - -
19/09:00am 26.2 SSW 14 19 1009.4 - 0.0 - - - - - - -
19/08:30am 25.3 SSW 17 21 1009.3 - 0.0 - - - - - - -
19/08:00am 24.7 SSW 17 23 1009.3 - 0.0 - - - - - - -
19/07:30am 23.7 SW 16 21 1009.1 - 0.0 - - - - - - -
19/07:00am 22.6 SW 16 21 1009.0 - 0.0 - - - - - - -
19/06:30am 21.7 SW 14 17 1008.6 - 0.0 - - - - - - -
19/06:00am 21.4 SW 13 17 1008.3 - 0.0 - - - - - - -
19/05:30am 21.4 SW 13 16 1007.8 - 0.0 - - - - - - -
19/05:00am 21.5 SW 14 19 1007.6 - 0.0 - - - - - - -
19/04:30am 21.6 SW 14 19 1007.4 - 0.0 - - - - - - -
19/04:00am 21.8 SW 17 22 1007.3 - 0.0 - - - - - - -
19/03:30am 22.1 SW 17 22 1007.1 - 0.0 - - - - - - -
19/03:00am 22.3 SW 14 18 1007.3 - 0.0 - - - - - - -
19/02:30am 22.5 SW 17 21 1007.3 - 0.0 - - - - - - -
19/02:00am 22.7 SW 17 22 1007.6 - 0.0 - - - - - - -
19/01:30am 22.8 SW 19 23 1007.6 - 0.0 - - - - - - -
19/01:00am 22.9 SW 17 22 1007.8 - 0.0 - - - - - - -
19/12:30am 23.2 SW 17 23 1008.3 - 0.0 - - - - - - -
19/12:00am 23.2 SW 19 26 1008.1 - 0.0 - - - - - - -
 
Date/Time
WST
Temp
°C
Wind Pressure Rain since
9am
mm
Weather Cloud Vis
km
Sea
Height
m
Swell
Dir  Spd
kts
Gust
kts
hPa Trend Height
m
Period
s
Dir
18/11:30pm 23.6 SW 18 25 1008.6 - 0.0 - - - - - - -
18/11:00pm 23.9 SW 19 24 1008.5 - 0.0 - - - - - - -
18/10:30pm 24.3 SW 19 24 1008.4 - 0.0 - - - - - - -
18/10:00pm 24.8 SW 21 26 1008.5 - 0.0 - - - - - - -
18/09:30pm 25.1 SW 17 23 1008.4 - 0.0 - - - - - - -
18/09:00pm 25.6 SW 19 25 1008.1 - 0.0 - - - - - - -
18/08:30pm 25.9 WSW 18 23 1007.9 - 0.0 - - - - - - -
18/08:00pm 26.5 WSW 16 22 1007.7 - 0.0 - - - - - - -
18/07:30pm 27.3 WSW 18 25 1007.1 - 0.0 - - - - - - -
18/07:00pm 28.3 WSW 18 27 1006.6 - 0.0 - - - - - - -
18/06:30pm 29.4 WSW 20 26 1006.0 - 0.0 - - - - - - -
18/06:00pm 30.3 WSW 21 27 1005.3 - 0.0 - - - - - - -
18/05:30pm 30.9 WSW 21 26 1004.9 - 0.0 - - - - - - -
18/05:00pm 30.3 W 20 26 1004.5 - 0.0 - - - - - - -
18/04:30pm 30.3 W 22 28 1004.4 - 0.0 - - - - - - -

Other Formats:

Comma delimited format used in spreadsheet applications
http://www.bom.gov.au/fwo/IDW60701/IDW60701.95305.axf

JavaScript Object Notation format (JSON) in row-major order
http://www.bom.gov.au/fwo/IDW60701/IDW60701.95305.json